Time;durP1;ratioP1;P1;durP2;ratioP2;P2;SDS_P1;SDS_P2;PMS_P1;PMS_P2;Temp;Humidity;BMP_temperature;BMP_pressure;BME280_temperature;BME280_humidity;BME280_pressure;Samples;Min_cycle;Max_cycle;Signal;HPM_P1;HPM_P2
2021/08/22 00:02:06;;;;;;;;;;;;;;;22.95;28.94;98121.78;4918803;29;1160;-84
2021/08/22 00:04:32;;;;;;;;;;;;;;;23.17;28.61;98121.94;4949583;29;1968;-83
2021/08/22 00:06:58;;;;;;;;;;;;;;;23.01;28.83;98125.69;4950445;29;635;-83
2021/08/22 00:09:25;;;;;;;;;;;;;;;22.93;29.11;98113.72;4950199;29;750;-84
2021/08/22 00:11:50;;;;;;;;;;;;;;;22.94;29.03;98120.19;4934571;29;884;-83
2021/08/22 00:14:16;;;;;;;;;;;;;;;23.00;29.01;98124.06;4934084;29;1177;-84
2021/08/22 00:16:42;;;;;;;;;;;;;;;23.05;28.61;98109.31;4934146;29;1135;-84
2021/08/22 00:19:08;;;;;;;;;;;;;;;22.94;29.13;98108.84;4950308;29;901;-83
2021/08/22 00:21:34;;;;;;;;;;;;;;;22.85;29.19;98115.97;4934181;29;621;-83
2021/08/22 00:23:59;;;;;;;;;;;;;;;22.90;29.04;98111.00;4918869;29;1982;-84
2021/08/22 00:26:24;;;;;;;;;;;;;;;22.94;28.71;98111.69;4950335;29;687;-83
2021/08/22 00:28:50;;;;;;;;;;;;;;;23.07;28.70;98109.69;4934258;29;1376;-83
2021/08/22 00:31:15;;;;;;;;;;;;;;;23.14;28.32;98106.59;4918773;29;1188;-84
2021/08/22 00:33:41;;;;;;;;;;;;;;;23.04;28.60;98107.72;4917952;29;1211;-81
2021/08/22 00:36:06;;;;;;;;;;;;;;;23.08;28.80;98108.41;4917199;29;1168;-83
2021/08/22 00:38:33;;;;;;;;;;;;;;;23.06;28.58;98116.59;4932965;29;932;-83
2021/08/22 00:40:59;;;;;;;;;;;;;;;23.07;28.54;98112.50;4917866;29;1309;-81
2021/08/22 00:43:25;;;;;;;;;;;;;;;23.14;28.67;98106.59;4933003;29;1185;-84
2021/08/22 00:45:50;;;;;;;;;;;;;;;23.08;28.63;98109.22;4918072;29;1876;-83
2021/08/22 00:48:15;;;;;;;;;;;;;;;23.10;28.69;98111.59;4949429;29;903;-82
2021/08/22 00:50:41;;;;;;;;;;;;;;;23.25;28.21;98106.25;4949271;29;1025;-81
2021/08/22 00:53:07;;;;;;;;;;;;;;;23.06;28.79;98110.94;4932693;29;1153;-83
2021/08/22 00:55:32;;;;;;;;;;;;;;;23.20;28.33;98109.66;4948560;29;1496;-84
2021/08/22 00:58:00;;;;;;;;;;;;;;;22.98;28.97;98103.88;4949303;29;815;-83
2021/08/22 01:00:25;;;;;;;;;;;;;;;23.02;28.91;98118.75;4932962;29;819;-84
2021/08/22 01:02:51;;;;;;;;;;;;;;;22.97;28.88;98122.16;4947542;29;1018;-83
2021/08/22 01:05:32;;;;;;;;;;;;;;;23.12;28.76;98114.78;4948687;29;1898;-84
2021/08/22 01:08:01;;;;;;;;;;;;;;;23.09;28.65;98110.00;4933472;29;839;-83
2021/08/22 01:10:27;;;;;;;;;;;;;;;23.01;28.73;98114.31;4933412;29;747;-83
2021/08/22 01:12:55;;;;;;;;;;;;;;;23.14;28.85;98123.63;4933646;29;815;-84
2021/08/22 01:15:20;;;;;;;;;;;;;;;23.14;28.89;98112.28;4933079;29;1172;-84
2021/08/22 01:17:48;;;;;;;;;;;;;;;22.96;29.14;98118.50;4917322;29;1179;-83
2021/08/22 01:20:16;;;;;;;;;;;;;;;23.16;28.82;98109.81;4948425;29;990;-83
2021/08/22 01:22:48;;;;;;;;;;;;;;;23.07;28.77;98116.13;4933035;29;904;-84
2021/08/22 01:25:13;;;;;;;;;;;;;;;22.86;28.92;98109.03;4932678;29;1903;-82
2021/08/22 01:27:39;;;;;;;;;;;;;;;23.04;28.79;98113.41;4948214;29;582;-82
2021/08/22 01:30:05;;;;;;;;;;;;;;;23.13;28.69;98116.38;4917082;29;1335;-84
2021/08/22 01:32:33;;;;;;;;;;;;;;;23.18;28.50;98118.66;4916811;29;934;-84
2021/08/22 01:34:58;;;;;;;;;;;;;;;23.20;28.76;98116.13;4932939;29;1151;-84
2021/08/22 01:37:24;;;;;;;;;;;;;;;23.11;28.88;98108.31;4933589;29;1230;-84
2021/08/22 01:39:49;;;;;;;;;;;;;;;23.09;28.56;98115.69;4948685;29;604;-84
2021/08/22 01:42:15;;;;;;;;;;;;;;;23.02;28.61;98115.91;4933363;29;1230;-84
2021/08/22 01:44:41;;;;;;;;;;;;;;;23.08;28.73;98114.09;4933010;29;1871;-84
2021/08/22 01:47:07;;;;;;;;;;;;;;;22.97;29.02;98108.75;4932945;29;1020;-83
2021/08/22 01:49:33;;;;;;;;;;;;;;;23.06;28.71;98108.09;4932581;29;1175;-83
2021/08/22 01:51:58;;;;;;;;;;;;;;;22.90;28.96;98108.97;4948931;29;877;-83
2021/08/22 01:54:24;;;;;;;;;;;;;;;22.93;28.72;98107.25;4932667;29;1116;-84
2021/08/22 01:56:49;;;;;;;;;;;;;;;23.09;28.66;98098.66;4933215;29;1160;-84
2021/08/22 01:59:15;;;;;;;;;;;;;;;22.94;29.01;98106.00;4933410;29;1191;-83
2021/08/22 02:01:41;;;;;;;;;;;;;;;23.08;28.47;98111.25;4917622;29;1202;-83
2021/08/22 02:04:17;;;;;;;;;;;;;;;22.94;29.05;98103.16;4948672;29;1884;-83
2021/08/22 02:06:47;;;;;;;;;;;;;;;23.07;28.51;98104.00;4933300;29;859;-84
2021/08/22 02:09:12;;;;;;;;;;;;;;;22.86;29.05;98103.38;4949135;29;667;-84
2021/08/22 02:11:40;;;;;;;;;;;;;;;22.87;28.85;98104.94;4949008;29;644;-84
2021/08/22 02:14:05;;;;;;;;;;;;;;;23.02;28.83;98111.03;4947504;29;1059;-83
2021/08/22 02:16:31;;;;;;;;;;;;;;;23.09;28.58;98107.16;4932635;29;1157;-83
2021/08/22 02:18:56;;;;;;;;;;;;;;;23.14;28.51;98112.28;4948058;29;879;-83
2021/08/22 02:21:22;;;;;;;;;;;;;;;23.10;28.70;98112.41;4949205;29;928;-84
2021/08/22 02:23:52;;;;;;;;;;;;;;;22.86;28.86;98102.56;4933301;29;1975;-84
2021/08/22 02:26:18;;;;;;;;;;;;;;;23.07;28.53;98112.50;4938636;29;872;-84
2021/08/22 02:28:44;;;;;;;;;;;;;;;22.98;28.67;98115.22;4932451;29;824;-84
2021/08/22 02:31:13;;;;;;;;;;;;;;;23.04;28.88;98107.72;4917070;29;1324;-84
2021/08/22 02:33:38;;;;;;;;;;;;;;;23.01;28.67;98120.00;4948666;29;985;-84
2021/08/22 02:36:03;;;;;;;;;;;;;;;23.06;28.57;98111.72;4948479;29;926;-83
2021/08/22 02:38:29;;;;;;;;;;;;;;;23.05;28.86;98115.00;4948598;29;703;-84
2021/08/22 02:40:54;;;;;;;;;;;;;;;23.00;28.54;98119.22;4949639;29;742;-84
2021/08/22 02:43:20;;;;;;;;;;;;;;;23.12;28.63;98109.09;4932437;29;945;-84
2021/08/22 02:45:45;;;;;;;;;;;;;;;22.99;28.88;98111.13;4932945;29;1910;-84
2021/08/22 02:48:12;;;;;;;;;;;;;;;22.96;29.20;98117.72;4932809;29;1279;-83
2021/08/22 02:50:38;;;;;;;;;;;;;;;23.05;28.65;98115.00;4933285;29;1204;-84
2021/08/22 02:53:05;;;;;;;;;;;;;;;22.93;29.06;98112.94;4948668;29;667;-83
2021/08/22 02:55:30;;;;;;;;;;;;;;;22.96;29.07;98114.88;4932899;29;1268;-83
2021/08/22 02:57:56;;;;;;;;;;;;;;;23.01;28.92;98109.44;4949574;29;739;-83
2021/08/22 03:00:21;;;;;;;;;;;;;;;23.04;28.84;98116.25;4948490;29;966;-83
2021/08/22 03:02:47;;;;;;;;;;;;;;;23.06;28.61;98116.59;4948398;29;902;-84
2021/08/22 03:05:12;;;;;;;;;;;;;;;22.97;29.04;98113.63;4932436;29;1978;-84
2021/08/22 03:07:37;;;;;;;;;;;;;;;22.93;29.16;98115.78;4948627;29;703;-84
2021/08/22 03:10:03;;;;;;;;;;;;;;;22.94;28.76;98120.19;4917088;29;1183;-84
2021/08/22 03:12:29;;;;;;;;;;;;;;;22.86;29.27;98114.72;4948627;29;711;-84
2021/08/22 03:14:54;;;;;;;;;;;;;;;22.96;29.04;98117.72;4947536;29;965;-84
2021/08/22 03:17:19;;;;;;;;;;;;;;;22.94;28.75;98115.31;4948725;29;895;-84
2021/08/22 03:19:45;;;;;;;;;;;;;;;23.00;28.88;98118.38;4916931;29;1172;-84
2021/08/22 03:22:10;;;;;;;;;;;;;;;23.03;28.88;98112.59;4935379;29;757;-84
2021/08/22 03:24:36;;;;;;;;;;;;;;;23.16;28.56;98115.47;4951963;29;1966;-84
2021/08/22 03:27:01;;;;;;;;;;;;;;;22.90;28.81;98113.81;4920018;29;1274;-84
2021/08/22 03:29:27;;;;;;;;;;;;;;;23.12;28.46;98120.47;4951752;29;847;-84
2021/08/22 03:31:52;;;;;;;;;;;;;;;23.03;28.59;98120.34;4934805;29;1283;-82
2021/08/22 03:34:18;;;;;;;;;;;;;;;23.04;28.68;98113.41;4936199;29;1178;-84
2021/08/22 03:36:43;;;;;;;;;;;;;;;23.03;28.91;98118.28;4949762;29;699;-82
2021/08/22 03:39:09;;;;;;;;;;;;;;;23.11;28.70;98116.84;4933362;29;1154;-83
2021/08/22 03:41:35;;;;;;;;;;;;;;;23.06;28.75;98122.28;4949082;29;916;-82
2021/08/22 03:44:00;;;;;;;;;;;;;;;23.03;28.60;98118.28;4948514;29;1895;-82
2021/08/22 03:46:26;;;;;;;;;;;;;;;23.12;28.70;98126.13;4918519;29;1447;-82
2021/08/22 03:48:51;;;;;;;;;;;;;;;23.08;28.70;98117.72;4933140;29;1282;-82
2021/08/22 03:51:17;;;;;;;;;;;;;;;23.06;28.55;98117.41;4934060;29;764;-82
2021/08/22 03:53:42;;;;;;;;;;;;;;;22.83;28.88;98126.16;4948752;29;886;-83
2021/08/22 03:56:08;;;;;;;;;;;;;;;23.01;28.70;98125.69;4933863;29;1077;-83
2021/08/22 03:58:33;;;;;;;;;;;;;;;22.99;28.61;98128.16;4948410;29;980;-82
2021/08/22 04:01:00;;;;;;;;;;;;;;;22.84;28.85;98122.06;4949733;29;1009;-82
2021/08/22 04:03:26;;;;;;;;;;;;;;;22.95;28.99;98124.63;4932969;29;632;-83
2021/08/22 04:06:01;;;;;;;;;;;;;;;22.95;28.78;98125.44;4950283;29;1927;-83
2021/08/22 04:08:27;;;;;;;;;;;;;;;22.87;28.70;98119.13;4933579;29;1343;-81
2021/08/22 04:10:52;;;;;;;;;;;;;;;22.88;28.74;98126.44;4949214;29;960;-83
2021/08/22 04:13:19;;;;;;;;;;;;;;;23.11;28.41;98131.03;4950821;29;982;-84
2021/08/22 04:15:45;;;;;;;;;;;;;;;22.90;28.77;98126.00;4904567;29;1382;-84
2021/08/22 04:18:10;;;;;;;;;;;;;;;23.15;28.80;98128.06;4904672;29;1164;-84
2021/08/22 04:20:36;;;;;;;;;;;;;;;23.02;28.94;98124.41;4905578;29;1188;-84
2021/08/22 04:23:02;;;;;;;;;;;;;;;22.91;29.04;98132.47;4917693;29;1309;-83
2021/08/22 04:25:27;;;;;;;;;;;;;;;22.92;29.02;98139.72;4932900;29;1949;-82
2021/08/22 04:28:10;;;;;;;;;;;;;;;22.95;29.02;98133.13;4916578;29;918;-83
2021/08/22 04:30:35;;;;;;;;;;;;;;;23.26;28.54;98136.25;4917677;29;1293;-83
2021/08/22 04:33:00;;;;;;;;;;;;;;;23.10;28.54;98139.97;4931812;29;719;-83
2021/08/22 04:35:27;;;;;;;;;;;;;;;22.94;29.02;98134.38;4917878;29;1153;-83
2021/08/22 04:37:52;;;;;;;;;;;;;;;23.08;28.61;98136.81;4933070;29;743;-83
2021/08/22 04:40:24;;;;;;;;;;;;;;;22.97;29.10;98145.63;4932336;29;929;-82
2021/08/22 04:42:49;;;;;;;;;;;;;;;23.02;28.91;98144.28;4932377;29;1274;-83
2021/08/22 04:45:14;;;;;;;;;;;;;;;23.11;28.73;98147.25;4932057;29;1903;-83
2021/08/22 04:47:40;;;;;;;;;;;;;;;23.00;28.86;98147.59;4917138;29;1358;-82
2021/08/22 04:50:05;;;;;;;;;;;;;;;23.07;28.78;98140.88;4948765;29;813;-82
2021/08/22 04:52:31;;;;;;;;;;;;;;;22.83;29.16;98138.31;4916397;29;1280;-82
2021/08/22 04:54:57;;;;;;;;;;;;;;;22.96;29.14;98146.09;4932096;29;1117;-82
2021/08/22 04:57:23;;;;;;;;;;;;;;;22.97;29.20;98148.47;4932521;29;949;-83
2021/08/22 04:59:48;;;;;;;;;;;;;;;22.94;29.08;98155.03;4948757;29;844;-83
2021/08/22 05:02:13;;;;;;;;;;;;;;;23.14;29.14;98152.03;4932333;29;855;-82
2021/08/22 05:04:39;;;;;;;;;;;;;;;23.03;29.11;98149.50;4900829;29;1898;-83
2021/08/22 05:07:05;;;;;;;;;;;;;;;22.95;29.36;98150.16;4948529;29;696;-83
2021/08/22 05:09:31;;;;;;;;;;;;;;;23.02;29.01;98155.63;4948212;29;947;-83
2021/08/22 05:11:56;;;;;;;;;;;;;;;23.03;29.25;98151.56;4932474;29;952;-82
2021/08/22 05:14:22;;;;;;;;;;;;;;;23.05;28.93;98147.03;4922358;29;1171;-82
2021/08/22 05:16:48;;;;;;;;;;;;;;;23.10;28.92;98154.16;4932427;29;759;-83
2021/08/22 05:19:14;;;;;;;;;;;;;;;23.16;28.95;98149.53;4932130;29;909;-82
2021/08/22 05:21:39;;;;;;;;;;;;;;;23.09;29.22;98146.91;4948186;29;737;-83
2021/08/22 05:24:24;;;;;;;;;;;;;;;23.06;29.03;98162.81;4946654;29;1976;-83
2021/08/22 05:26:49;;;;;;;;;;;;;;;23.02;29.27;98155.63;4947601;29;895;-83
2021/08/22 05:29:15;;;;;;;;;;;;;;;23.10;29.02;98159.84;4930931;29;856;-83
2021/08/22 05:31:40;;;;;;;;;;;;;;;23.15;29.07;98162.13;4931516;29;1162;-82
2021/08/22 05:34:06;;;;;;;;;;;;;;;23.07;29.23;98158.72;4931229;29;1177;-82
2021/08/22 05:36:35;;;;;;;;;;;;;;;23.13;29.36;98156.09;4947592;29;854;-83
2021/08/22 05:39:03;;;;;;;;;;;;;;;23.23;29.17;98154.97;4931314;29;1179;-82
2021/08/22 05:41:29;;;;;;;;;;;;;;;23.18;29.46;98166.91;4947327;29;988;-83
2021/08/22 05:43:54;;;;;;;;;;;;;;;23.06;29.74;98167.69;4947167;29;1898;-83
2021/08/22 05:46:20;;;;;;;;;;;;;;;23.08;29.38;98165.19;4931825;29;1369;-83
2021/08/22 05:48:45;;;;;;;;;;;;;;;22.92;29.82;98165.25;4915385;29;1268;-82
2021/08/22 05:51:14;;;;;;;;;;;;;;;23.09;29.70;98163.94;4931114;29;951;-83
2021/08/22 05:53:41;;;;;;;;;;;;;;;23.01;29.72;98171.09;4930066;29;884;-82
2021/08/22 05:56:06;;;;;;;;;;;;;;;23.16;29.53;98177.09;4931736;29;1245;-83
2021/08/22 05:58:32;;;;;;;;;;;;;;;23.10;29.65;98168.34;4930722;29;932;-83
2021/08/22 06:00:57;;;;;;;;;;;;;;;23.05;29.64;98172.56;4931272;29;1198;-83
2021/08/22 06:03:23;;;;;;;;;;;;;;;23.19;29.35;98164.84;4946289;29;929;-83
2021/08/22 06:05:50;;;;;;;;;;;;;;;23.17;29.87;98171.00;4930968;29;1915;-83
2021/08/22 06:08:16;;;;;;;;;;;;;;;23.16;29.73;98163.72;4930949;29;1252;-83
2021/08/22 06:10:41;;;;;;;;;;;;;;;23.10;29.89;98179.72;4915180;29;1293;-83
2021/08/22 06:13:06;;;;;;;;;;;;;;;23.09;29.92;98166.75;4946872;29;956;-82
2021/08/22 06:15:32;;;;;;;;;;;;;;;23.22;29.90;98170.44;4947066;29;816;-82
2021/08/22 06:17:57;;;;;;;;;;;;;;;23.28;29.72;98171.47;4930637;29;1134;-82
2021/08/22 06:20:23;;;;;;;;;;;;;;;23.21;29.96;98168.03;4947473;29;790;-82
2021/08/22 06:22:48;;;;;;;;;;;;;;;23.39;29.65;98165.44;4946731;29;986;-83
2021/08/22 06:25:14;;;;;;;;;;;;;;;23.28;29.77;98168.63;4946730;29;1903;-83
2021/08/22 06:27:39;;;;;;;;;;;;;;;23.20;29.95;98167.22;4930986;29;928;-82
2021/08/22 06:30:05;;;;;;;;;;;;;;;23.14;29.87;98169.03;4930719;29;1314;-83
2021/08/22 06:32:30;;;;;;;;;;;;;;;23.17;30.12;98173.84;4947858;29;674;-82
2021/08/22 06:34:56;;;;;;;;;;;;;;;23.14;29.91;98175.53;4946515;29;734;-82
2021/08/22 06:37:21;;;;;;;;;;;;;;;23.23;30.01;98166.34;4947583;29;907;-82
2021/08/22 06:39:48;;;;;;;;;;;;;;;23.03;30.39;98174.25;4914373;29;1327;-83
2021/08/22 06:42:14;;;;;;;;;;;;;;;23.24;30.07;98176.44;4946973;29;868;-82
2021/08/22 06:44:39;;;;;;;;;;;;;;;23.27;30.02;98171.91;4946367;29;2167;-83
2021/08/22 06:47:06;;;;;;;;;;;;;;;23.21;29.85;98180.19;4915161;29;1284;-83
2021/08/22 06:49:32;;;;;;;;;;;;;;;23.29;30.21;98175.88;4914437;29;1301;-83
2021/08/22 06:51:58;;;;;;;;;;;;;;;23.40;29.90;98184.88;4946620;29;1019;-82
2021/08/22 06:54:24;;;;;;;;;;;;;;;23.31;29.92;98178.25;4914636;29;1163;-83
2021/08/22 06:56:52;;;;;;;;;;;;;;;23.43;29.80;98179.53;4948628;29;1040;-82
2021/08/22 06:59:17;;;;;;;;;;;;;;;23.28;30.21;98190.53;4950371;29;640;-82
2021/08/22 07:01:43;;;;;;;;;;;;;;;23.22;30.07;98183.84;4951270;29;631;-82
2021/08/22 07:04:09;;;;;;;;;;;;;;;23.26;29.86;98188.16;4934101;29;1975;-82
2021/08/22 07:06:34;;;;;;;;;;;;;;;23.14;30.25;98191.75;4950230;29;870;-83
2021/08/22 07:09:00;;;;;;;;;;;;;;;23.20;30.20;98194.84;4965997;29;891;-83
2021/08/22 07:11:25;;;;;;;;;;;;;;;23.20;30.08;98178.59;4950478;29;914;-82
2021/08/22 07:13:51;;;;;;;;;;;;;;;23.31;30.15;98193.28;4919031;29;1183;-83
2021/08/22 07:16:16;;;;;;;;;;;;;;;23.25;30.00;98197.91;4934316;29;853;-83
2021/08/22 07:18:42;;;;;;;;;;;;;;;23.38;29.78;98201.56;4949333;29;875;-83
2021/08/22 07:21:07;;;;;;;;;;;;;;;23.26;29.80;98208.03;4949874;29;937;-83
2021/08/22 07:23:33;;;;;;;;;;;;;;;23.35;29.68;98208.13;4933077;29;1259;-82
2021/08/22 07:25:58;;;;;;;;;;;;;;;23.17;30.19;98202.22;4934033;29;1911;-83
2021/08/22 07:28:24;;;;;;;;;;;;;;;23.22;29.92;98207.34;4933040;29;836;-82
2021/08/22 07:30:49;;;;;;;;;;;;;;;23.31;29.78;98207.47;4950055;29;775;-82
2021/08/22 07:33:15;;;;;;;;;;;;;;;23.11;30.01;98204.03;4933087;29;771;-82
2021/08/22 07:35:40;;;;;;;;;;;;;;;23.31;30.03;98201.78;4933759;29;1296;-83
2021/08/22 07:38:06;;;;;;;;;;;;;;;23.41;29.50;98205.53;4949498;29;982;-83
2021/08/22 07:40:31;;;;;;;;;;;;;;;23.43;29.72;98213.63;4934072;29;923;-82
2021/08/22 07:42:57;;;;;;;;;;;;;;;23.32;30.02;98209.06;4918047;29;1466;-83
2021/08/22 07:45:23;;;;;;;;;;;;;;;23.29;30.08;98209.16;4933658;29;1946;-83
2021/08/22 07:47:48;;;;;;;;;;;;;;;23.44;29.76;98216.00;4933720;29;856;-82
2021/08/22 07:50:14;;;;;;;;;;;;;;;23.62;29.42;98209.75;4933674;29;987;-82
2021/08/22 07:52:39;;;;;;;;;;;;;;;23.56;29.59;98211.56;4933277;29;961;-83
2021/08/22 07:55:05;;;;;;;;;;;;;;;23.51;29.35;98214.97;4949084;29;1299;-83
2021/08/22 07:57:30;;;;;;;;;;;;;;;23.40;29.77;98212.47;4933434;29;1290;-82
2021/08/22 07:59:56;;;;;;;;;;;;;;;23.48;29.77;98210.22;4948950;29;635;-83
2021/08/22 08:02:21;;;;;;;;;;;;;;;23.39;29.74;98213.72;4949751;29;791;-82
2021/08/22 08:04:47;;;;;;;;;;;;;;;23.46;29.73;98215.53;4916642;29;1891;-82
2021/08/22 08:07:12;;;;;;;;;;;;;;;23.45;29.63;98211.09;4948025;29;891;-82
2021/08/22 08:09:38;;;;;;;;;;;;;;;23.49;29.78;98212.59;4916294;29;1130;-82
2021/08/22 08:12:03;;;;;;;;;;;;;;;23.23;30.19;98208.13;4917479;29;1134;-83
2021/08/22 08:14:29;;;;;;;;;;;;;;;23.28;29.89;98208.38;4932034;29;1292;-83
2021/08/22 08:17:01;;;;;;;;;;;;;;;23.26;30.15;98204.38;4948567;29;783;-82
2021/08/22 08:19:26;;;;;;;;;;;;;;;23.23;30.13;98200.41;4931973;29;1175;-83
2021/08/22 08:21:52;;;;;;;;;;;;;;;23.28;29.94;98208.38;4932160;29;948;-83
2021/08/22 08:24:17;;;;;;;;;;;;;;;23.34;29.95;98202.91;4916720;29;1907;-83
2021/08/22 08:26:42;;;;;;;;;;;;;;;23.38;29.55;98195.88;4948382;29;937;-83
2021/08/22 08:29:08;;;;;;;;;;;;;;;23.26;29.97;98215.72;4932321;29;1660;-83
2021/08/22 08:31:35;;;;;;;;;;;;;;;23.34;29.87;98200.88;4932798;29;839;-83
2021/08/22 08:34:02;;;;;;;;;;;;;;;23.32;29.71;98209.06;4932181;29;983;-82
2021/08/22 08:36:27;;;;;;;;;;;;;;;23.45;29.83;98205.44;4932296;29;1179;-83
2021/08/22 08:38:52;;;;;;;;;;;;;;;23.43;29.41;98196.59;4916260;29;1198;-82
2021/08/22 08:41:18;;;;;;;;;;;;;;;23.36;29.95;98192.72;4931938;29;833;-82
2021/08/22 08:43:47;;;;;;;;;;;;;;;23.42;29.80;98195.00;4947674;29;675;-82
2021/08/22 08:46:15;;;;;;;;;;;;;;;23.52;29.63;98193.84;4931595;29;1914;-82
2021/08/22 08:48:59;;;;;;;;;;;;;;;23.30;29.90;98185.97;4946922;29;958;-82
2021/08/22 08:51:24;;;;;;;;;;;;;;;23.29;30.03;98187.25;4948423;29;945;-82
2021/08/22 08:54:02;;;;;;;;;;;;;;;23.34;30.12;98195.19;4931992;29;1253;-82
2021/08/22 08:56:48;;;;;;;;;;;;;;;23.36;29.94;98187.03;4948387;29;619;-82
2021/08/22 08:59:13;;;;;;;;;;;;;;;23.35;29.90;98188.25;4946844;29;1272;-82
2021/08/22 09:01:39;;;;;;;;;;;;;;;23.32;30.13;98185.56;4948128;29;670;-82
2021/08/22 09:04:12;;;;;;;;;;;;;;;23.36;29.91;98175.69;4914686;29;1956;-82
2021/08/22 09:06:57;;;;;;;;;;;;;;;23.37;30.08;98187.84;4930937;29;1091;-82
2021/08/22 09:09:41;;;;;;;;;;;;;;;23.57;29.91;98196.13;4947555;29;846;-82
2021/08/22 09:12:25;;;;;;;;;;;;;;;23.37;30.13;98180.09;4948267;29;735;-82
2021/08/22 09:15:09;;;;;;;;;;;;;;;23.30;29.83;98174.63;4946615;29;1119;-82
2021/08/22 09:17:54;;;;;;;;;;;;;;;23.33;30.03;98176.56;4947951;29;737;-82
2021/08/22 09:20:29;;;;;;;;;;;;;;;23.37;30.05;98176.47;4946474;29;1047;-82
2021/08/22 09:23:13;;;;;;;;;;;;;;;23.38;29.73;98173.16;4947035;29;897;-82
2021/08/22 09:26:05;;;;;;;;;;;;;;;23.27;30.21;98169.09;4946721;29;1906;-82
2021/08/22 09:28:30;;;;;;;;;;;;;;;23.43;29.92;98173.88;4919844;29;1008;-82
2021/08/22 09:31:14;;;;;;;;;;;;;;;23.45;29.65;98171.34;4946821;29;640;-82
2021/08/22 09:33:42;;;;;;;;;;;;;;;23.33;29.79;98165.22;4946367;29;1251;-81
2021/08/22 09:36:37;;;;;;;;;;;;;;;23.47;29.43;98163.19;4947508;29;1023;-82
2021/08/22 09:39:21;;;;;;;;;;;;;;;23.56;29.03;98171.81;4946649;29;1159;-82
2021/08/22 09:41:56;;;;;;;;;;;;;;;23.49;29.42;98177.72;4948604;29;762;-82
2021/08/22 09:44:52;;;;;;;;;;;;;;;23.50;29.34;98185.00;4947897;29;1906;-82
2021/08/22 09:47:43;;;;;;;;;;;;;;;23.35;29.50;98174.06;4948010;29;636;-82
2021/08/22 09:50:39;;;;;;;;;;;;;;;23.23;29.87;98168.38;4946975;29;843;-82
2021/08/22 09:53:16;;;;;;;;;;;;;;;23.34;29.59;98168.84;4947485;29;863;-82
2021/08/22 09:55:54;;;;;;;;;;;;;;;23.27;29.52;98171.91;4947965;29;861;-82
2021/08/22 09:58:38;;;;;;;;;;;;;;;23.35;29.32;98164.75;4947279;29;645;-82
2021/08/22 10:01:16;;;;;;;;;;;;;;;23.28;29.52;98170.66;4947495;29;943;-82
2021/08/22 10:04:00;;;;;;;;;;;;;;;23.52;29.13;98176.78;4946476;29;679;-82
2021/08/22 10:06:41;;;;;;;;;;;;;;;23.37;29.46;98171.59;4947270;29;707;-82
2021/08/22 10:09:33;;;;;;;;;;;;;;;23.47;29.11;98166.81;4930390;29;958;-82
2021/08/22 10:12:02;;;;;;;;;;;;;;;23.27;29.30;98155.69;4925094;29;954;-82
2021/08/22 10:14:29;;;;;;;;;;;;;;;23.28;29.49;98157.25;4930728;29;1328;-82
2021/08/22 10:16:55;;;;;;;;;;;;;;;23.39;29.28;98163.41;4963142;29;667;-82
2021/08/22 10:19:27;;;;;;;;;;;;;;;23.27;29.45;98155.69;4946649;29;1192;-82
2021/08/22 10:22:13;;;;;;;;;;;;;;;23.39;29.40;98157.72;4963232;29;623;-82
2021/08/22 10:24:38;;;;;;;;;;;;;;;23.45;29.17;98146.59;4946784;28;1962;-82
2021/08/22 10:27:05;;;;;;;;;;;;;;;23.36;29.28;98144.44;4947525;29;801;-82
2021/08/22 10:29:31;;;;;;;;;;;;;;;23.47;29.33;98146.16;4947111;29;950;-83
2021/08/22 10:31:56;;;;;;;;;;;;;;;23.40;29.31;98153.63;4962242;29;891;-82
2021/08/22 10:34:22;;;;;;;;;;;;;;;23.36;29.25;98152.16;4946361;29;612;-82
2021/08/22 10:36:48;;;;;;;;;;;;;;;23.31;29.10;98136.50;4962804;29;631;-82
2021/08/22 10:39:19;;;;;;;;;;;;;;;23.36;29.33;98147.28;4962641;29;1010;-82
2021/08/22 10:41:45;;;;;;;;;;;;;;;23.17;29.62;98139.78;4946135;29;924;-81
2021/08/22 10:44:29;;;;;;;;;;;;;;;23.28;29.32;98148.75;4946991;29;1875;-82
2021/08/22 10:47:01;;;;;;;;;;;;;;;23.42;28.88;98149.56;4946879;29;1187;-82
2021/08/22 10:49:46;;;;;;;;;;;;;;;23.33;29.29;98153.84;4946835;29;607;-82
2021/08/22 10:52:29;;;;;;;;;;;;;;;23.11;29.72;98138.75;4947497;29;698;-82
2021/08/22 10:55:05;;;;;;;;;;;;;;;23.20;29.54;98144.53;4946265;29;1406;-82
2021/08/22 10:57:49;;;;;;;;;;;;;;;23.32;29.17;98135.25;4947099;29;931;-82
2021/08/22 11:00:22;;;;;;;;;;;;;;;23.32;29.43;98145.81;4946833;29;727;-82
2021/08/22 11:03:11;;;;;;;;;;;;;;;23.32;29.36;98152.28;4947749;29;682;-82
2021/08/22 11:05:36;;;;;;;;;;;;;;;23.15;29.58;98142.25;4948054;29;1981;-82
2021/08/22 11:08:18;;;;;;;;;;;;;;;23.52;28.91;98148.41;4962071;29;911;-82
2021/08/22 11:10:57;;;;;;;;;;;;;;;23.37;28.75;98142.41;4962759;29;1018;-82
2021/08/22 11:13:22;;;;;;;;;;;;;;;23.05;29.47;98127.16;4945725;29;993;-82
2021/08/22 11:15:48;;;;;;;;;;;;;;;23.31;29.11;98141.34;4946835;29;837;-82
2021/08/22 11:18:17;;;;;;;;;;;;;;;23.29;29.10;98144.66;4945585;29;840;-82
2021/08/22 11:20:43;;;;;;;;;;;;;;;23.31;29.25;98159.22;4930046;29;787;-82
2021/08/22 11:23:16;;;;;;;;;;;;;;;23.49;28.91;98152.16;4930464;29;1189;-82
2021/08/22 11:25:41;;;;;;;;;;;;;;;23.46;28.65;98155.91;4931057;29;1985;-82
2021/08/22 11:28:13;;;;;;;;;;;;;;;23.33;29.01;98159.53;4945342;29;933;-82
2021/08/22 11:30:39;;;;;;;;;;;;;;;23.33;29.11;98153.84;4946694;29;799;-83
2021/08/22 11:33:05;;;;;;;;;;;;;;;23.31;29.03;98147.84;4930009;29;911;-82
2021/08/22 11:35:30;;;;;;;;;;;;;;;23.21;29.01;98140.47;4930948;29;877;-82
2021/08/22 11:37:59;;;;;;;;;;;;;;;23.37;29.03;98137.50;4929655;29;866;-82
2021/08/22 11:40:26;;;;;;;;;;;;;;;23.27;28.93;98149.22;4945717;29;950;-81
2021/08/22 11:42:53;;;;;;;;;;;;;;;23.04;29.33;98142.56;4930647;29;1044;-82
2021/08/22 11:45:19;;;;;;;;;;;;;;;23.37;29.02;98143.19;4933506;29;1906;-82
2021/08/22 11:47:44;;;;;;;;;;;;;;;23.20;29.22;98133.16;4949417;29;947;-82
2021/08/22 11:50:11;;;;;;;;;;;;;;;23.04;29.33;98136.91;4933407;29;919;-82
2021/08/22 11:52:36;;;;;;;;;;;;;;;22.92;29.56;98139.72;4949661;29;950;-81
2021/08/22 11:55:06;;;;;;;;;;;;;;;23.19;29.36;98128.75;4933063;29;983;-82
2021/08/22 11:57:31;;;;;;;;;;;;;;;23.30;29.22;98149.06;4949350;29;941;-82
2021/08/22 11:59:58;;;;;;;;;;;;;;;23.23;29.02;98151.34;4948788;29;895;-82
2021/08/22 12:02:25;;;;;;;;;;;;;;;23.22;29.39;98142.03;4949680;29;894;-82
2021/08/22 12:05:09;;;;;;;;;;;;;;;23.34;29.14;98144.09;4949123;29;1887;-83
2021/08/22 12:07:35;;;;;;;;;;;;;;;23.30;29.09;98149.06;4950964;29;727;-82
2021/08/22 12:10:00;;;;;;;;;;;;;;;23.37;29.00;98140.34;4948324;29;998;-82
2021/08/22 12:12:26;;;;;;;;;;;;;;;23.31;29.21;98142.16;4933760;29;919;-82
2021/08/22 12:14:51;;;;;;;;;;;;;;;23.34;28.84;98137.63;4949399;29;973;-82
2021/08/22 12:17:20;;;;;;;;;;;;;;;23.34;29.13;98149.78;4949620;29;763;-82
2021/08/22 12:19:46;;;;;;;;;;;;;;;23.36;29.01;98138.78;4948669;29;883;-82
2021/08/22 12:22:12;;;;;;;;;;;;;;;23.37;29.02;98145.25;4949102;29;823;-83
2021/08/22 12:24:43;;;;;;;;;;;;;;;22.99;29.36;98145.19;4948975;29;1915;-82
2021/08/22 12:27:08;;;;;;;;;;;;;;;23.23;29.32;98143.63;4948873;29;973;-82
2021/08/22 12:29:42;;;;;;;;;;;;;;;23.21;29.41;98133.97;4948443;29;887;-82
2021/08/22 12:32:08;;;;;;;;;;;;;;;23.16;29.08;98149.53;4933262;29;1219;-82
2021/08/22 12:34:33;;;;;;;;;;;;;;;23.38;29.00;98144.78;4948988;29;663;-81
2021/08/22 12:37:06;;;;;;;;;;;;;;;23.35;28.92;98140.00;4933236;29;1251;-82
2021/08/22 12:39:31;;;;;;;;;;;;;;;23.31;29.10;98139.34;4947775;29;1013;-82
2021/08/22 12:41:56;;;;;;;;;;;;;;;23.19;29.38;98148.63;4947393;29;984;-81
2021/08/22 12:44:23;;;;;;;;;;;;;;;23.23;29.25;98137.94;4931809;29;1981;-82
2021/08/22 12:46:52;;;;;;;;;;;;;;;23.23;29.27;98137.16;4948029;29;765;-80
2021/08/22 12:49:17;;;;;;;;;;;;;;;23.47;28.72;98140.47;4947842;29;687;-81
2021/08/22 12:51:46;;;;;;;;;;;;;;;23.29;28.79;98141.81;4932734;29;772;-82
2021/08/22 12:54:12;;;;;;;;;;;;;;;23.30;29.25;98149.06;4946924;29;839;-82
2021/08/22 12:56:37;;;;;;;;;;;;;;;23.12;29.01;98140.34;4947549;29;840;-82
2021/08/22 12:59:03;;;;;;;;;;;;;;;23.30;29.03;98143.41;4916074;29;935;-82
2021/08/22 13:01:29;;;;;;;;;;;;;;;23.35;29.03;98145.66;4948382;29;616;-82
2021/08/22 13:03:56;;;;;;;;;;;;;;;23.40;28.78;98147.16;4947287;29;867;-82
2021/08/22 13:06:22;;;;;;;;;;;;;;;23.25;29.25;98141.13;4946839;29;1880;-82
2021/08/22 13:08:49;;;;;;;;;;;;;;;23.15;29.28;98136.56;4931786;29;1124;-82